Penney Farms, Florida
Current Conditions -  °F | °C
As of 8:50 AM on Thursday 30 Oct 2014 (Local Time) from KVQQ Reporting Station
Haze Haze  
Wind Chill: 63°   Ceiling: Unl
Heat Index: 63°   Visibility: 2mi
Dew Point: 63°   Wind: 0mph
Humidity: 100%   Direction: NA
Pressure: 30"   Gusts: NA
Location:  29.98°N, 81.81°W
Report Text: KVQQ 301250Z 00000KT 2SM BR CLR 17/17 A3000
Loading
Personal Weather Stations






























Interactive Weather Map
Tropical Storm Tracking
New forecast layout! Learn more

10-Day Weather Forecast

Advertisements
Track Severe Weather on mobile